sensor_id;sensor_type;location;lat;lon;timestamp;P1;durP1;ratioP1;P2;durP2;ratioP2
9972;SDS011;5027;53.560;10.062;2023-12-07T00:00:01;89.40;;;54.87;;
9972;SDS011;5027;53.560;10.062;2023-12-07T00:02:29;97.60;;;56.67;;
9972;SDS011;5027;53.560;10.062;2023-12-07T00:04:56;89.67;;;54.33;;
9972;SDS011;5027;53.560;10.062;2023-12-07T00:07:23;89.40;;;54.03;;
9972;SDS011;5027;53.560;10.062;2023-12-07T00:09:50;85.77;;;54.40;;
9972;SDS011;5027;53.560;10.062;2023-12-07T00:12:17;91.30;;;54.67;;
9972;SDS011;5027;53.560;10.062;2023-12-07T00:14:44;85.77;;;53.17;;
9972;SDS011;5027;53.560;10.062;2023-12-07T00:17:11;85.30;;;52.20;;
9972;SDS011;5027;53.560;10.062;2023-12-07T00:19:38;77.70;;;50.00;;
9972;SDS011;5027;53.560;10.062;2023-12-07T00:22:05;71.37;;;49.03;;
9972;SDS011;5027;53.560;10.062;2023-12-07T00:24:31;79.37;;;51.97;;
9972;SDS011;5027;53.560;10.062;2023-12-07T00:26:58;75.30;;;49.67;;
9972;SDS011;5027;53.560;10.062;2023-12-07T00:29:25;72.90;;;48.53;;
9972;SDS011;5027;53.560;10.062;2023-12-07T00:31:52;74.17;;;48.63;;
9972;SDS011;5027;53.560;10.062;2023-12-07T00:34:19;72.33;;;47.23;;
9972;SDS011;5027;53.560;10.062;2023-12-07T00:36:46;67.90;;;45.47;;
9972;SDS011;5027;53.560;10.062;2023-12-07T00:39:13;70.93;;;48.33;;
9972;SDS011;5027;53.560;10.062;2023-12-07T00:41:42;68.00;;;45.93;;
9972;SDS011;5027;53.560;10.062;2023-12-07T00:44:08;76.53;;;49.67;;
9972;SDS011;5027;53.560;10.062;2023-12-07T00:46:35;68.90;;;47.20;;
9972;SDS011;5027;53.560;10.062;2023-12-07T00:49:02;71.40;;;48.47;;
9972;SDS011;5027;53.560;10.062;2023-12-07T00:51:29;70.07;;;46.63;;
9972;SDS011;5027;53.560;10.062;2023-12-07T00:53:55;73.47;;;46.93;;
9972;SDS011;5027;53.560;10.062;2023-12-07T00:56:22;72.37;;;48.17;;
9972;SDS011;5027;53.560;10.062;2023-12-07T00:58:49;71.80;;;48.13;;
9972;SDS011;5027;53.560;10.062;2023-12-07T01:01:15;71.17;;;49.13;;
9972;SDS011;5027;53.560;10.062;2023-12-07T01:03:42;71.17;;;47.47;;
9972;SDS011;5027;53.560;10.062;2023-12-07T01:06:09;68.07;;;45.83;;
9972;SDS011;5027;53.560;10.062;2023-12-07T01:08:39;69.40;;;46.97;;
9972;SDS011;5027;53.560;10.062;2023-12-07T01:11:06;71.13;;;45.77;;
9972;SDS011;5027;53.560;10.062;2023-12-07T01:13:33;68.33;;;47.00;;
9972;SDS011;5027;53.560;10.062;2023-12-07T01:15:59;68.20;;;45.00;;
9972;SDS011;5027;53.560;10.062;2023-12-07T01:18:26;72.97;;;47.77;;
9972;SDS011;5027;53.560;10.062;2023-12-07T01:20:53;69.87;;;46.90;;
9972;SDS011;5027;53.560;10.062;2023-12-07T01:23:20;70.63;;;46.83;;
9972;SDS011;5027;53.560;10.062;2023-12-07T01:25:47;70.87;;;46.97;;
9972;SDS011;5027;53.560;10.062;2023-12-07T01:28:13;69.57;;;46.80;;
9972;SDS011;5027;53.560;10.062;2023-12-07T01:30:40;68.83;;;46.53;;
9972;SDS011;5027;53.560;10.062;2023-12-07T01:33:07;72.97;;;46.20;;
9972;SDS011;5027;53.560;10.062;2023-12-07T01:35:33;72.40;;;48.03;;
9972;SDS011;5027;53.560;10.062;2023-12-07T01:38:00;65.57;;;46.03;;
9972;SDS011;5027;53.560;10.062;2023-12-07T01:40:27;66.73;;;45.80;;
9972;SDS011;5027;53.560;10.062;2023-12-07T01:42:55;71.93;;;46.40;;
9972;SDS011;5027;53.560;10.062;2023-12-07T01:45:22;66.83;;;45.47;;
9972;SDS011;5027;53.560;10.062;2023-12-07T01:47:49;68.30;;;46.27;;
9972;SDS011;5027;53.560;10.062;2023-12-07T01:50:19;66.43;;;44.00;;
9972;SDS011;5027;53.560;10.062;2023-12-07T01:52:52;67.07;;;46.20;;
9972;SDS011;5027;53.560;10.062;2023-12-07T01:55:22;67.27;;;45.97;;
9972;SDS011;5027;53.560;10.062;2023-12-07T01:57:49;72.07;;;47.37;;
9972;SDS011;5027;53.560;10.062;2023-12-07T02:00:16;67.30;;;46.63;;
9972;SDS011;5027;53.560;10.062;2023-12-07T02:02:43;66.03;;;45.23;;
9972;SDS011;5027;53.560;10.062;2023-12-07T02:05:12;73.03;;;49.07;;
9972;SDS011;5027;53.560;10.062;2023-12-07T02:07:43;76.77;;;49.77;;
9972;SDS011;5027;53.560;10.062;2023-12-07T02:10:10;77.57;;;50.33;;
9972;SDS011;5027;53.560;10.062;2023-12-07T02:12:37;76.27;;;48.40;;
9972;SDS011;5027;53.560;10.062;2023-12-07T02:15:04;80.27;;;50.53;;
9972;SDS011;5027;53.560;10.062;2023-12-07T02:17:33;80.50;;;51.07;;
9972;SDS011;5027;53.560;10.062;2023-12-07T02:20:06;77.63;;;49.20;;
9972;SDS011;5027;53.560;10.062;2023-12-07T02:22:55;79.77;;;49.63;;
9972;SDS011;5027;53.560;10.062;2023-12-07T02:25:23;78.67;;;49.87;;
9972;SDS011;5027;53.560;10.062;2023-12-07T02:27:57;75.87;;;49.30;;
9972;SDS011;5027;53.560;10.062;2023-12-07T02:30:24;74.97;;;46.67;;
9972;SDS011;5027;53.560;10.062;2023-12-07T02:32:51;76.97;;;48.70;;
9972;SDS011;5027;53.560;10.062;2023-12-07T02:35:17;79.93;;;47.57;;
9972;SDS011;5027;53.560;10.062;2023-12-07T02:37:45;74.63;;;47.30;;
9972;SDS011;5027;53.560;10.062;2023-12-07T02:40:22;82.40;;;47.73;;
9972;SDS011;5027;53.560;10.062;2023-12-07T02:42:51;69.93;;;45.50;;
9972;SDS011;5027;53.560;10.062;2023-12-07T02:45:19;77.47;;;48.53;;
9972;SDS011;5027;53.560;10.062;2023-12-07T02:47:47;70.97;;;45.83;;
9972;SDS011;5027;53.560;10.062;2023-12-07T02:50:14;70.17;;;45.20;;
9972;SDS011;5027;53.560;10.062;2023-12-07T02:52:41;71.80;;;45.53;;
9972;SDS011;5027;53.560;10.062;2023-12-07T02:55:08;63.17;;;44.80;;
9972;SDS011;5027;53.560;10.062;2023-12-07T02:57:35;67.50;;;43.70;;
9972;SDS011;5027;53.560;10.062;2023-12-07T03:00:03;62.47;;;42.90;;
9972;SDS011;5027;53.560;10.062;2023-12-07T03:02:34;64.33;;;43.67;;
9972;SDS011;5027;53.560;10.062;2023-12-07T03:05:02;62.53;;;42.43;;
9972;SDS011;5027;53.560;10.062;2023-12-07T03:07:29;65.33;;;42.83;;
9972;SDS011;5027;53.560;10.062;2023-12-07T03:09:56;61.30;;;41.67;;
9972;SDS011;5027;53.560;10.062;2023-12-07T03:12:23;63.13;;;43.47;;
9972;SDS011;5027;53.560;10.062;2023-12-07T03:14:51;60.77;;;42.00;;
9972;SDS011;5027;53.560;10.062;2023-12-07T03:17:17;62.87;;;42.60;;
9972;SDS011;5027;53.560;10.062;2023-12-07T03:19:44;63.47;;;43.47;;
9972;SDS011;5027;53.560;10.062;2023-12-07T03:22:11;61.80;;;43.00;;
9972;SDS011;5027;53.560;10.062;2023-12-07T03:24:40;59.83;;;42.77;;
9972;SDS011;5027;53.560;10.062;2023-12-07T03:27:12;59.90;;;41.40;;
9972;SDS011;5027;53.560;10.062;2023-12-07T03:29:38;61.07;;;42.57;;
9972;SDS011;5027;53.560;10.062;2023-12-07T03:32:05;60.83;;;42.43;;
9972;SDS011;5027;53.560;10.062;2023-12-07T03:34:32;63.50;;;42.27;;
9972;SDS011;5027;53.560;10.062;2023-12-07T03:36:59;58.30;;;41.53;;
9972;SDS011;5027;53.560;10.062;2023-12-07T03:39:26;56.00;;;41.20;;
9972;SDS011;5027;53.560;10.062;2023-12-07T03:41:53;59.40;;;42.47;;
9972;SDS011;5027;53.560;10.062;2023-12-07T03:44:20;55.80;;;41.43;;
9972;SDS011;5027;53.560;10.062;2023-12-07T03:46:46;57.80;;;42.57;;
9972;SDS011;5027;53.560;10.062;2023-12-07T03:49:14;58.20;;;41.57;;
9972;SDS011;5027;53.560;10.062;2023-12-07T03:51:41;60.40;;;42.60;;
9972;SDS011;5027;53.560;10.062;2023-12-07T03:54:08;55.13;;;41.37;;
9972;SDS011;5027;53.560;10.062;2023-12-07T03:56:35;56.33;;;40.93;;
9972;SDS011;5027;53.560;10.062;2023-12-07T03:59:01;55.73;;;40.77;;
9972;SDS011;5027;53.560;10.062;2023-12-07T04:01:28;57.03;;;41.07;;
9972;SDS011;5027;53.560;10.062;2023-12-07T04:03:56;58.03;;;41.27;;
9972;SDS011;5027;53.560;10.062;2023-12-07T04:06:24;53.23;;;38.83;;
9972;SDS011;5027;53.560;10.062;2023-12-07T04:08:51;48.77;;;37.97;;
9972;SDS011;5027;53.560;10.062;2023-12-07T04:11:18;51.83;;;37.90;;
9972;SDS011;5027;53.560;10.062;2023-12-07T04:13:45;57.27;;;41.30;;
9972;SDS011;5027;53.560;10.062;2023-12-07T04:16:12;50.93;;;38.17;;
9972;SDS011;5027;53.560;10.062;2023-12-07T04:18:39;53.40;;;40.37;;
9972;SDS011;5027;53.560;10.062;2023-12-07T04:21:06;54.60;;;39.77;;
9972;SDS011;5027;53.560;10.062;2023-12-07T04:23:33;52.03;;;38.97;;
9972;SDS011;5027;53.560;10.062;2023-12-07T04:25:59;52.23;;;37.67;;
9972;SDS011;5027;53.560;10.062;2023-12-07T04:28:26;50.43;;;37.97;;
9972;SDS011;5027;53.560;10.062;2023-12-07T04:30:53;49.73;;;38.03;;
9972;SDS011;5027;53.560;10.062;2023-12-07T04:33:20;52.13;;;38.40;;
9972;SDS011;5027;53.560;10.062;2023-12-07T04:35:47;48.87;;;37.27;;
9972;SDS011;5027;53.560;10.062;2023-12-07T04:38:14;52.53;;;39.07;;
9972;SDS011;5027;53.560;10.062;2023-12-07T04:40:40;53.40;;;39.17;;
9972;SDS011;5027;53.560;10.062;2023-12-07T04:43:08;51.60;;;39.60;;
9972;SDS011;5027;53.560;10.062;2023-12-07T04:45:35;48.50;;;39.17;;
9972;SDS011;5027;53.560;10.062;2023-12-07T04:48:02;58.10;;;39.80;;
9972;SDS011;5027;53.560;10.062;2023-12-07T04:50:31;53.20;;;39.17;;
9972;SDS011;5027;53.560;10.062;2023-12-07T04:52:58;54.80;;;39.67;;
9972;SDS011;5027;53.560;10.062;2023-12-07T04:55:25;53.77;;;38.93;;
9972;SDS011;5027;53.560;10.062;2023-12-07T04:57:52;46.00;;;36.93;;
9972;SDS011;5027;53.560;10.062;2023-12-07T05:00:19;53.13;;;39.53;;
9972;SDS011;5027;53.560;10.062;2023-12-07T05:02:47;53.90;;;40.57;;
9972;SDS011;5027;53.560;10.062;2023-12-07T05:05:14;48.93;;;37.73;;
9972;SDS011;5027;53.560;10.062;2023-12-07T05:07:41;52.23;;;40.50;;
9972;SDS011;5027;53.560;10.062;2023-12-07T05:10:08;51.07;;;38.60;;
9972;SDS011;5027;53.560;10.062;2023-12-07T05:12:36;49.63;;;37.67;;
9972;SDS011;5027;53.560;10.062;2023-12-07T05:15:03;45.63;;;34.77;;
9972;SDS011;5027;53.560;10.062;2023-12-07T05:17:30;46.97;;;34.60;;
9972;SDS011;5027;53.560;10.062;2023-12-07T05:19:57;44.33;;;34.27;;
9972;SDS011;5027;53.560;10.062;2023-12-07T05:22:24;46.90;;;35.70;;
9972;SDS011;5027;53.560;10.062;2023-12-07T05:24:51;45.67;;;35.13;;
9972;SDS011;5027;53.560;10.062;2023-12-07T05:27:18;49.67;;;34.77;;
9972;SDS011;5027;53.560;10.062;2023-12-07T05:29:45;43.93;;;33.97;;
9972;SDS011;5027;53.560;10.062;2023-12-07T05:32:11;43.20;;;33.70;;
9972;SDS011;5027;53.560;10.062;2023-12-07T05:34:38;45.57;;;33.73;;
9972;SDS011;5027;53.560;10.062;2023-12-07T05:37:05;40.10;;;31.60;;
9972;SDS011;5027;53.560;10.062;2023-12-07T05:39:32;44.20;;;32.80;;
9972;SDS011;5027;53.560;10.062;2023-12-07T05:41:59;42.07;;;31.10;;
9972;SDS011;5027;53.560;10.062;2023-12-07T05:44:25;41.80;;;31.30;;
9972;SDS011;5027;53.560;10.062;2023-12-07T05:46:52;40.23;;;31.63;;
9972;SDS011;5027;53.560;10.062;2023-12-07T05:49:19;42.30;;;31.80;;
9972;SDS011;5027;53.560;10.062;2023-12-07T05:51:48;39.13;;;31.70;;
9972;SDS011;5027;53.560;10.062;2023-12-07T05:54:15;38.83;;;30.10;;
9972;SDS011;5027;53.560;10.062;2023-12-07T05:56:42;37.70;;;30.83;;
9972;SDS011;5027;53.560;10.062;2023-12-07T05:59:09;45.90;;;38.07;;
9972;SDS011;5027;53.560;10.062;2023-12-07T06:01:36;38.77;;;30.67;;
9972;SDS011;5027;53.560;10.062;2023-12-07T06:04:03;39.83;;;32.00;;
9972;SDS011;5027;53.560;10.062;2023-12-07T06:06:30;38.17;;;30.67;;
9972;SDS011;5027;53.560;10.062;2023-12-07T06:08:57;34.70;;;29.10;;
9972;SDS011;5027;53.560;10.062;2023-12-07T06:11:24;38.83;;;30.63;;
9972;SDS011;5027;53.560;10.062;2023-12-07T06:13:51;34.90;;;29.63;;
9972;SDS011;5027;53.560;10.062;2023-12-07T06:16:18;36.37;;;29.87;;
9972;SDS011;5027;53.560;10.062;2023-12-07T06:18:45;38.17;;;30.97;;
9972;SDS011;5027;53.560;10.062;2023-12-07T06:21:13;38.03;;;30.90;;
9972;SDS011;5027;53.560;10.062;2023-12-07T06:23:40;37.73;;;31.10;;
9972;SDS011;5027;53.560;10.062;2023-12-07T06:26:08;42.23;;;32.20;;
9972;SDS011;5027;53.560;10.062;2023-12-07T06:28:35;38.67;;;31.73;;
9972;SDS011;5027;53.560;10.062;2023-12-07T06:31:05;38.80;;;32.73;;
9972;SDS011;5027;53.560;10.062;2023-12-07T06:33:33;38.77;;;31.70;;
9972;SDS011;5027;53.560;10.062;2023-12-07T06:36:01;39.17;;;31.60;;
9972;SDS011;5027;53.560;10.062;2023-12-07T06:38:29;37.60;;;31.10;;
9972;SDS011;5027;53.560;10.062;2023-12-07T06:40:56;40.67;;;33.00;;
9972;SDS011;5027;53.560;10.062;2023-12-07T06:43:23;40.37;;;32.17;;
9972;SDS011;5027;53.560;10.062;2023-12-07T06:45:51;40.93;;;32.73;;
9972;SDS011;5027;53.560;10.062;2023-12-07T06:48:17;38.70;;;32.07;;
9972;SDS011;5027;53.560;10.062;2023-12-07T06:50:44;44.77;;;34.37;;
9972;SDS011;5027;53.560;10.062;2023-12-07T06:53:11;42.73;;;33.77;;
9972;SDS011;5027;53.560;10.062;2023-12-07T06:55:38;44.47;;;34.23;;
9972;SDS011;5027;53.560;10.062;2023-12-07T06:58:10;42.50;;;34.53;;
9972;SDS011;5027;53.560;10.062;2023-12-07T07:00:37;47.30;;;35.37;;
9972;SDS011;5027;53.560;10.062;2023-12-07T07:03:04;40.90;;;33.77;;
9972;SDS011;5027;53.560;10.062;2023-12-07T07:05:32;43.37;;;34.87;;
9972;SDS011;5027;53.560;10.062;2023-12-07T07:07:59;43.80;;;34.40;;
9972;SDS011;5027;53.560;10.062;2023-12-07T07:10:26;44.73;;;34.27;;
9972;SDS011;5027;53.560;10.062;2023-12-07T07:12:52;44.13;;;35.67;;
9972;SDS011;5027;53.560;10.062;2023-12-07T07:15:19;44.00;;;36.37;;
9972;SDS011;5027;53.560;10.062;2023-12-07T07:17:46;45.40;;;36.53;;
9972;SDS011;5027;53.560;10.062;2023-12-07T07:20:13;45.03;;;34.60;;
9972;SDS011;5027;53.560;10.062;2023-12-07T07:22:40;46.60;;;35.17;;
9972;SDS011;5027;53.560;10.062;2023-12-07T07:25:07;52.57;;;37.77;;
9972;SDS011;5027;53.560;10.062;2023-12-07T07:27:34;46.07;;;35.90;;
9972;SDS011;5027;53.560;10.062;2023-12-07T07:30:01;46.13;;;36.27;;
9972;SDS011;5027;53.560;10.062;2023-12-07T07:32:30;47.53;;;35.80;;
9972;SDS011;5027;53.560;10.062;2023-12-07T07:34:57;47.30;;;37.13;;
9972;SDS011;5027;53.560;10.062;2023-12-07T07:37:24;49.07;;;37.03;;
9972;SDS011;5027;53.560;10.062;2023-12-07T07:39:51;53.77;;;40.03;;
9972;SDS011;5027;53.560;10.062;2023-12-07T07:42:18;44.90;;;36.57;;
9972;SDS011;5027;53.560;10.062;2023-12-07T07:44:45;47.13;;;37.97;;
9972;SDS011;5027;53.560;10.062;2023-12-07T07:47:11;49.20;;;37.10;;
9972;SDS011;5027;53.560;10.062;2023-12-07T07:49:38;48.53;;;37.07;;
9972;SDS011;5027;53.560;10.062;2023-12-07T07:52:05;48.50;;;39.10;;
9972;SDS011;5027;53.560;10.062;2023-12-07T07:54:32;45.80;;;37.80;;
9972;SDS011;5027;53.560;10.062;2023-12-07T07:56:59;48.90;;;38.33;;
9972;SDS011;5027;53.560;10.062;2023-12-07T07:59:25;47.43;;;35.77;;
9972;SDS011;5027;53.560;10.062;2023-12-07T08:01:52;45.67;;;36.47;;
9972;SDS011;5027;53.560;10.062;2023-12-07T08:04:19;44.87;;;35.90;;
9972;SDS011;5027;53.560;10.062;2023-12-07T08:06:45;46.03;;;35.90;;
9972;SDS011;5027;53.560;10.062;2023-12-07T08:09:12;49.13;;;38.07;;
9972;SDS011;5027;53.560;10.062;2023-12-07T08:11:39;47.23;;;36.40;;
9972;SDS011;5027;53.560;10.062;2023-12-07T08:14:07;47.20;;;37.20;;
9972;SDS011;5027;53.560;10.062;2023-12-07T08:16:33;48.13;;;37.63;;
9972;SDS011;5027;53.560;10.062;2023-12-07T08:19:00;50.57;;;37.60;;
9972;SDS011;5027;53.560;10.062;2023-12-07T08:21:27;45.07;;;36.13;;
9972;SDS011;5027;53.560;10.062;2023-12-07T08:23:56;44.47;;;36.63;;
9972;SDS011;5027;53.560;10.062;2023-12-07T08:26:23;45.37;;;35.17;;
9972;SDS011;5027;53.560;10.062;2023-12-07T08:28:50;44.83;;;35.00;;
9972;SDS011;5027;53.560;10.062;2023-12-07T08:31:20;42.60;;;33.87;;
9972;SDS011;5027;53.560;10.062;2023-12-07T08:33:52;45.67;;;36.27;;
9972;SDS011;5027;53.560;10.062;2023-12-07T08:36:19;43.47;;;35.67;;
9972;SDS011;5027;53.560;10.062;2023-12-07T08:38:47;47.20;;;36.40;;
9972;SDS011;5027;53.560;10.062;2023-12-07T08:41:13;44.20;;;35.10;;
9972;SDS011;5027;53.560;10.062;2023-12-07T08:43:40;45.80;;;35.60;;
9972;SDS011;5027;53.560;10.062;2023-12-07T08:46:07;44.00;;;35.30;;
9972;SDS011;5027;53.560;10.062;2023-12-07T08:48:35;44.87;;;36.17;;
9972;SDS011;5027;53.560;10.062;2023-12-07T08:51:08;46.10;;;37.23;;
9972;SDS011;5027;53.560;10.062;2023-12-07T08:53:35;46.03;;;36.60;;
9972;SDS011;5027;53.560;10.062;2023-12-07T08:56:02;45.50;;;36.70;;
9972;SDS011;5027;53.560;10.062;2023-12-07T08:58:30;44.23;;;35.60;;
9972;SDS011;5027;53.560;10.062;2023-12-07T09:00:56;51.60;;;40.50;;
9972;SDS011;5027;53.560;10.062;2023-12-07T09:03:23;47.43;;;38.90;;
9972;SDS011;5027;53.560;10.062;2023-12-07T09:05:58;44.13;;;37.00;;
9972;SDS011;5027;53.560;10.062;2023-12-07T09:08:26;49.20;;;39.27;;
9972;SDS011;5027;53.560;10.062;2023-12-07T09:10:52;53.30;;;40.20;;
9972;SDS011;5027;53.560;10.062;2023-12-07T09:13:19;47.63;;;38.57;;
9972;SDS011;5027;53.560;10.062;2023-12-07T09:15:46;48.80;;;39.00;;
9972;SDS011;5027;53.560;10.062;2023-12-07T09:18:13;49.27;;;39.83;;
9972;SDS011;5027;53.560;10.062;2023-12-07T09:20:40;47.47;;;38.27;;
9972;SDS011;5027;53.560;10.062;2023-12-07T09:23:13;49.13;;;39.37;;
9972;SDS011;5027;53.560;10.062;2023-12-07T09:25:41;50.37;;;40.13;;
9972;SDS011;5027;53.560;10.062;2023-12-07T09:28:08;50.63;;;40.57;;
9972;SDS011;5027;53.560;10.062;2023-12-07T09:30:35;50.27;;;39.20;;
9972;SDS011;5027;53.560;10.062;2023-12-07T09:33:02;47.83;;;38.00;;
9972;SDS011;5027;53.560;10.062;2023-12-07T09:35:29;44.60;;;37.97;;
9972;SDS011;5027;53.560;10.062;2023-12-07T09:37:56;49.90;;;40.00;;
9972;SDS011;5027;53.560;10.062;2023-12-07T09:40:23;39.80;;;34.10;;
9972;SDS011;5027;53.560;10.062;2023-12-07T09:42:51;44.87;;;36.67;;
9972;SDS011;5027;53.560;10.062;2023-12-07T09:45:18;41.93;;;36.80;;
9972;SDS011;5027;53.560;10.062;2023-12-07T09:47:47;51.23;;;39.17;;
9972;SDS011;5027;53.560;10.062;2023-12-07T09:50:19;52.60;;;40.57;;
9972;SDS011;5027;53.560;10.062;2023-12-07T09:52:51;53.20;;;41.17;;
9972;SDS011;5027;53.560;10.062;2023-12-07T09:55:33;47.87;;;38.90;;
9972;SDS011;5027;53.560;10.062;2023-12-07T09:58:02;54.63;;;41.20;;
9972;SDS011;5027;53.560;10.062;2023-12-07T10:00:31;48.87;;;40.47;;
9972;SDS011;5027;53.560;10.062;2023-12-07T10:02:59;52.10;;;41.37;;
9972;SDS011;5027;53.560;10.062;2023-12-07T10:05:26;51.77;;;41.97;;
9972;SDS011;5027;53.560;10.062;2023-12-07T10:07:53;50.70;;;42.77;;
9972;SDS011;5027;53.560;10.062;2023-12-07T10:10:20;50.97;;;41.83;;
9972;SDS011;5027;53.560;10.062;2023-12-07T10:12:48;53.70;;;44.07;;
9972;SDS011;5027;53.560;10.062;2023-12-07T10:15:18;52.40;;;41.87;;
9972;SDS011;5027;53.560;10.062;2023-12-07T10:17:47;54.80;;;44.70;;
9972;SDS011;5027;53.560;10.062;2023-12-07T10:20:22;62.33;;;48.83;;
9972;SDS011;5027;53.560;10.062;2023-12-07T10:25:31;49.70;;;40.57;;
9972;SDS011;5027;53.560;10.062;2023-12-07T10:27:59;52.17;;;42.63;;
9972;SDS011;5027;53.560;10.062;2023-12-07T10:30:27;51.60;;;40.93;;
9972;SDS011;5027;53.560;10.062;2023-12-07T10:32:54;48.83;;;41.30;;
9972;SDS011;5027;53.560;10.062;2023-12-07T10:35:20;46.47;;;41.40;;
9972;SDS011;5027;53.560;10.062;2023-12-07T10:37:47;51.00;;;42.43;;
9972;SDS011;5027;53.560;10.062;2023-12-07T10:40:15;49.37;;;42.27;;
9972;SDS011;5027;53.560;10.062;2023-12-07T10:42:41;49.13;;;41.83;;
9972;SDS011;5027;53.560;10.062;2023-12-07T10:45:14;47.50;;;41.37;;
9972;SDS011;5027;53.560;10.062;2023-12-07T10:47:43;49.87;;;41.50;;
9972;SDS011;5027;53.560;10.062;2023-12-07T10:50:10;46.53;;;40.43;;
9972;SDS011;5027;53.560;10.062;2023-12-07T10:52:50;53.57;;;43.03;;
9972;SDS011;5027;53.560;10.062;2023-12-07T10:55:20;52.53;;;42.43;;
9972;SDS011;5027;53.560;10.062;2023-12-07T10:57:52;53.40;;;43.07;;
9972;SDS011;5027;53.560;10.062;2023-12-07T11:00:22;52.53;;;43.87;;
9972;SDS011;5027;53.560;10.062;2023-12-07T11:03:06;56.23;;;44.17;;
9972;SDS011;5027;53.560;10.062;2023-12-07T11:05:34;55.30;;;43.47;;
9972;SDS011;5027;53.560;10.062;2023-12-07T11:08:08;57.10;;;44.67;;
9972;SDS011;5027;53.560;10.062;2023-12-07T11:10:45;62.87;;;47.87;;
9972;SDS011;5027;53.560;10.062;2023-12-07T11:13:23;64.10;;;47.83;;
9972;SDS011;5027;53.560;10.062;2023-12-07T11:15:55;62.67;;;46.50;;
9972;SDS011;5027;53.560;10.062;2023-12-07T11:18:26;55.13;;;44.90;;
9972;SDS011;5027;53.560;10.062;2023-12-07T11:20:54;53.63;;;44.50;;
9972;SDS011;5027;53.560;10.062;2023-12-07T11:23:22;54.50;;;45.20;;
9972;SDS011;5027;53.560;10.062;2023-12-07T11:25:50;54.07;;;42.77;;
9972;SDS011;5027;53.560;10.062;2023-12-07T11:28:18;61.50;;;44.63;;
9972;SDS011;5027;53.560;10.062;2023-12-07T11:31:00;52.50;;;42.90;;
9972;SDS011;5027;53.560;10.062;2023-12-07T11:33:28;59.00;;;44.20;;
9972;SDS011;5027;53.560;10.062;2023-12-07T11:38:29;54.87;;;43.20;;
9972;SDS011;5027;53.560;10.062;2023-12-07T11:40:56;52.63;;;43.50;;
9972;SDS011;5027;53.560;10.062;2023-12-07T11:45:59;48.23;;;40.33;;
9972;SDS011;5027;53.560;10.062;2023-12-07T11:48:26;48.97;;;39.47;;
9972;SDS011;5027;53.560;10.062;2023-12-07T11:53:26;47.80;;;38.40;;
9972;SDS011;5027;53.560;10.062;2023-12-07T11:55:53;49.30;;;39.13;;
9972;SDS011;5027;53.560;10.062;2023-12-07T11:58:20;41.87;;;36.10;;
9972;SDS011;5027;53.560;10.062;2023-12-07T12:00:47;46.07;;;39.30;;
9972;SDS011;5027;53.560;10.062;2023-12-07T12:03:14;49.03;;;37.30;;
9972;SDS011;5027;53.560;10.062;2023-12-07T12:05:41;45.67;;;38.13;;
9972;SDS011;5027;53.560;10.062;2023-12-07T12:08:09;43.97;;;36.97;;
9972;SDS011;5027;53.560;10.062;2023-12-07T12:10:37;45.40;;;36.43;;
9972;SDS011;5027;53.560;10.062;2023-12-07T12:13:05;42.03;;;36.20;;
9972;SDS011;5027;53.560;10.062;2023-12-07T12:15:32;39.50;;;34.70;;
9972;SDS011;5027;53.560;10.062;2023-12-07T12:17:59;36.97;;;32.93;;
9972;SDS011;5027;53.560;10.062;2023-12-07T12:20:27;37.70;;;33.37;;
9972;SDS011;5027;53.560;10.062;2023-12-07T12:22:54;37.50;;;33.60;;
9972;SDS011;5027;53.560;10.062;2023-12-07T12:25:21;35.67;;;31.93;;
9972;SDS011;5027;53.560;10.062;2023-12-07T12:27:55;38.80;;;34.43;;
9972;SDS011;5027;53.560;10.062;2023-12-07T12:30:24;48.20;;;41.23;;
9972;SDS011;5027;53.560;10.062;2023-12-07T12:32:51;41.67;;;34.10;;
9972;SDS011;5027;53.560;10.062;2023-12-07T12:35:18;41.40;;;36.90;;
9972;SDS011;5027;53.560;10.062;2023-12-07T12:37:45;46.07;;;40.47;;
9972;SDS011;5027;53.560;10.062;2023-12-07T12:40:14;43.17;;;38.43;;
9972;SDS011;5027;53.560;10.062;2023-12-07T12:42:45;43.33;;;38.60;;
9972;SDS011;5027;53.560;10.062;2023-12-07T12:45:14;47.30;;;39.33;;
9972;SDS011;5027;53.560;10.062;2023-12-07T12:47:42;47.30;;;41.83;;
9972;SDS011;5027;53.560;10.062;2023-12-07T12:50:10;51.40;;;42.63;;
9972;SDS011;5027;53.560;10.062;2023-12-07T12:52:39;51.43;;;42.10;;
9972;SDS011;5027;53.560;10.062;2023-12-07T12:55:07;52.07;;;42.23;;
9972;SDS011;5027;53.560;10.062;2023-12-07T12:57:36;52.57;;;40.90;;
9972;SDS011;5027;53.560;10.062;2023-12-07T13:00:04;52.60;;;41.47;;
9972;SDS011;5027;53.560;10.062;2023-12-07T13:02:33;48.63;;;40.87;;
9972;SDS011;5027;53.560;10.062;2023-12-07T13:05:00;47.60;;;40.50;;
9972;SDS011;5027;53.560;10.062;2023-12-07T13:07:28;45.57;;;40.17;;
9972;SDS011;5027;53.560;10.062;2023-12-07T13:09:55;48.20;;;40.50;;
9972;SDS011;5027;53.560;10.062;2023-12-07T13:12:22;46.13;;;39.33;;
9972;SDS011;5027;53.560;10.062;2023-12-07T13:14:49;42.37;;;36.97;;
9972;SDS011;5027;53.560;10.062;2023-12-07T13:17:16;40.77;;;36.20;;
9972;SDS011;5027;53.560;10.062;2023-12-07T13:19:43;36.13;;;32.30;;
9972;SDS011;5027;53.560;10.062;2023-12-07T13:22:10;38.33;;;34.27;;
9972;SDS011;5027;53.560;10.062;2023-12-07T13:24:36;37.40;;;32.23;;
9972;SDS011;5027;53.560;10.062;2023-12-07T13:27:04;37.63;;;32.50;;
9972;SDS011;5027;53.560;10.062;2023-12-07T13:29:31;34.97;;;31.30;;
9972;SDS011;5027;53.560;10.062;2023-12-07T13:32:02;34.10;;;30.50;;
9972;SDS011;5027;53.560;10.062;2023-12-07T13:34:30;34.83;;;31.13;;
9972;SDS011;5027;53.560;10.062;2023-12-07T13:36:57;34.17;;;30.50;;
9972;SDS011;5027;53.560;10.062;2023-12-07T13:39:24;34.00;;;30.43;;
9972;SDS011;5027;53.560;10.062;2023-12-07T13:41:57;33.77;;;30.27;;
9972;SDS011;5027;53.560;10.062;2023-12-07T13:44:25;35.33;;;30.73;;
9972;SDS011;5027;53.560;10.062;2023-12-07T13:46:54;32.53;;;29.13;;
9972;SDS011;5027;53.560;10.062;2023-12-07T13:49:23;33.07;;;29.57;;
9972;SDS011;5027;53.560;10.062;2023-12-07T13:51:59;32.77;;;29.37;;
9972;SDS011;5027;53.560;10.062;2023-12-07T13:54:31;35.03;;;31.13;;
9972;SDS011;5027;53.560;10.062;2023-12-07T13:57:18;34.87;;;31.20;;
9972;SDS011;5027;53.560;10.062;2023-12-07T13:59:52;34.30;;;30.73;;
9972;SDS011;5027;53.560;10.062;2023-12-07T14:02:22;35.93;;;32.13;;
9972;SDS011;5027;53.560;10.062;2023-12-07T14:04:50;33.73;;;30.23;;
9972;SDS011;5027;53.560;10.062;2023-12-07T14:07:20;37.17;;;33.17;;
9972;SDS011;5027;53.560;10.062;2023-12-07T14:09:51;36.80;;;32.93;;
9972;SDS011;5027;53.560;10.062;2023-12-07T14:12:25;36.80;;;32.73;;
9972;SDS011;5027;53.560;10.062;2023-12-07T14:14:54;36.57;;;32.57;;
9972;SDS011;5027;53.560;10.062;2023-12-07T14:17:24;35.53;;;31.87;;
9972;SDS011;5027;53.560;10.062;2023-12-07T14:19:54;34.43;;;30.67;;
9972;SDS011;5027;53.560;10.062;2023-12-07T14:22:35;38.23;;;32.70;;
9972;SDS011;5027;53.560;10.062;2023-12-07T14:25:03;35.90;;;32.10;;
9972;SDS011;5027;53.560;10.062;2023-12-07T14:27:30;37.27;;;32.27;;
9972;SDS011;5027;53.560;10.062;2023-12-07T14:29:57;35.33;;;31.43;;
9972;SDS011;5027;53.560;10.062;2023-12-07T14:32:24;34.43;;;30.93;;
9972;SDS011;5027;53.560;10.062;2023-12-07T14:34:51;36.67;;;32.63;;
9972;SDS011;5027;53.560;10.062;2023-12-07T14:37:18;34.87;;;31.13;;
9972;SDS011;5027;53.560;10.062;2023-12-07T14:39:45;36.83;;;32.87;;
9972;SDS011;5027;53.560;10.062;2023-12-07T14:42:12;37.83;;;33.17;;
9972;SDS011;5027;53.560;10.062;2023-12-07T14:44:38;36.20;;;32.30;;
9972;SDS011;5027;53.560;10.062;2023-12-07T14:47:05;38.73;;;32.53;;